Nearby METAR Reports

 

KIND - Indianapolis, Indiana, USA
Distance from station: SW 6mi, 9km
Updated: Sep 16 2019 9:54am
Few Clouds
Few Clouds
 Wind from NNW
Wind: NNW 7 mph , 11 km/h
Temperature: 79°F , 26°C
Dew Point: 68°F , 20°C
Humidity: 70%
Barometer: 30.11 inHg , 1019.6 hPa
Clouds: Few Clouds
Visibility: 10 miles , 16 km
Cloud details: Few Clouds 5500 ft
Few Clouds 7500 ft
2019/09/16 13:54 KIND 161354Z 34006KT 10SM FEW055 FEW075 26/20 A3011 RMK AO2 SLP187 T02560200 $
KEYE - Indianapolis, Indiana, USA
Distance from station: NW 5mi, 8km
Updated: Sep 16 2019 9:53am
Clear
Clear
 Wind from NW
Wind: NW 7 mph , 11 km/h
Temperature: 75°F , 24°C
Dew Point: 66°F , 19°C
Humidity: 74%
Barometer: 30.10 inHg , 1019.3 hPa
Clouds: Clear
Visibility: 10 miles , 16 km
2019/09/16 13:53 KEYE 161353Z AUTO 32006KT 10SM CLR 24/19 A3010 RMK AO2 SLP187 T02440194 $
 
KTYQ - Indianapolis Exc, Indiana, USA
Distance from station: N 17mi, 28km
Updated: Sep 16 2019 10:35am
Partly Cloudy
Partly Cloudy
 Wind from NNE
Wind: NNE 7 mph , 11 km/h
Temperature: 75°F , 24°C
Dew Point: 75°F , 24°C
Humidity: 100%
Barometer: 30.13 inHg , 1020.3 hPa
Clouds: Partly Cloudy
Visibility: 10 miles , 16 km
Cloud details: Partly Cloudy 6500 ft
2019/09/16 14:35 KTYQ 161435Z AUTO 02006KT 10SM SCT065 24/24 A3013 RMK AO2 T02380235
KGEZ - Shelbyville, Indiana, USA
Distance from station: ESE 27mi, 43km
Updated: Sep 16 2019 9:53am
Clear
Clear
 Wind from calm
Wind: Calm
Temperature: 75°F , 24°C
Dew Point: 64°F , 18°C
Humidity: 69%
Barometer: 30.10 inHg , 1019.3 hPa
Clouds: Clear
Visibility: 10 miles , 16 km
2019/09/16 13:53 KGEZ 161353Z AUTO 00000KT 10SM CLR 24/18 A3010 RMK AO2 SLP185 T02440183 $
 
KAID - Anderson Municip, Indiana, USA
Distance from station: NE 40mi, 64km
Updated: Sep 16 2019 10:35am
Partly Cloudy
Partly Cloudy
 Wind from N
Wind: N 8 mph , 13 km/h
Temperature: 75°F , 24°C
Dew Point: 68°F , 20°C
Humidity: 78%
Barometer: 30.12 inHg , 1020 hPa
Clouds: Partly Cloudy
Visibility: 10 miles , 16 km
Cloud details: Partly Cloudy 2500 ft
2019/09/16 14:35 KAID 161435Z AUTO 36007KT 10SM SCT025 24/20 A3012 RMK AO2 T02440196
KBAK - Columbus/Balkala, Indiana, USA
Distance from station: SSE 40mi, 64km
Updated: Sep 16 2019 10:45am
Partly Cloudy
Partly Cloudy
 Wind from NNW
Wind: NNW 6 mph , 9 km/h
Temperature: 77°F , 25°C
Dew Point: 68°F , 20°C
Humidity: 74%
Barometer: 30.11 inHg , 1019.6 hPa
Clouds: Partly Cloudy
Visibility: 10 miles , 16 km
Cloud details: Partly Cloudy 5500 ft
2019/09/16 14:45 KBAK 161445Z 33005KT 10SM SCT055 25/20 A3011
 
KBMG - Bloomington, Indiana, USA
Distance from station: SSW 48mi, 78km
Updated: Sep 16 2019 9:53am
Partly Cloudy
Partly Cloudy
 Wind from WNW
Wind: WNW 3 mph , 6 km/h
Temperature: 79°F , 26°C
Dew Point: 66°F , 19°C
Humidity: 65%
Barometer: 30.11 inHg , 1019.6 hPa
Clouds: Partly Cloudy
Visibility: 10 miles , 16 km
Cloud details: Few Clouds 4700 ft
Partly Cloudy 6000 ft
2019/09/16 13:53 KBMG 161353Z 29003KT 10SM FEW047 SCT060 26/19 A3011 RMK AO2 SLP186 T02560189 $
KOKK - Kokomo, Indiana, USA
Distance from station: N 53mi, 85km
Updated: Sep 16 2019 9:56am
Mostly Cloudy
Mostly Cloudy
 Wind from NNE
Wind: NNE 6 mph , 9 km/h
Temperature: 73°F , 23°C
Dew Point: 70°F , 21°C
Humidity: 89%
Barometer: 30.13 inHg , 1020.3 hPa
Clouds: Mostly Cloudy
Visibility: 10 miles , 16 km
Cloud details: Partly Cloudy 2300 ft
Mostly Cloudy 3000 ft
2019/09/16 13:56 KOKK 161356Z AUTO 02005KT 10SM SCT023 BKN030 23/21 A3013 RMK AO2 SLP199 T02330206